createdAt,value
2019-05-12T00:00:19.935Z,19.20
2019-05-12T00:05:12.024Z,18.77
2019-05-12T00:10:05.100Z,19.20
2019-05-12T00:14:58.987Z,17.80
2019-05-12T00:19:51.131Z,18.50
2019-05-12T00:24:43.759Z,18.80
2019-05-12T00:29:37.802Z,20.03
2019-05-12T00:34:30.620Z,20.27
2019-05-12T00:39:23.228Z,19.63
2019-05-12T00:44:18.364Z,20.03
2019-05-12T00:49:11.216Z,18.10
2019-05-12T00:54:03.458Z,27.70
2019-05-12T00:58:58.022Z,26.67
2019-05-12T01:03:50.076Z,18.90
2019-05-12T01:08:42.742Z,20.53
2019-05-12T01:13:35.306Z,23.50
2019-05-12T01:18:28.107Z,22.00
2019-05-12T01:23:23.376Z,21.87
2019-05-12T01:28:14.562Z,19.00
2019-05-12T01:33:08.557Z,17.20
2019-05-12T01:38:01.534Z,17.20
2019-05-12T01:42:53.968Z,19.00
2019-05-12T01:47:48.513Z,21.60
2019-05-12T01:52:40.798Z,21.40
2019-05-12T01:57:33.270Z,18.13
2019-05-12T02:02:28.400Z,18.43
2019-05-12T02:07:19.808Z,17.20
2019-05-12T02:12:12.281Z,20.70
2019-05-12T02:17:04.343Z,22.07
2019-05-12T02:21:57.946Z,18.37
2019-05-12T02:26:50.377Z,18.20
2019-05-12T02:31:42.896Z,18.13
2019-05-12T02:36:35.386Z,16.43
2019-05-12T02:41:27.763Z,18.20
2019-05-12T02:46:20.314Z,17.63
2019-05-12T02:51:15.534Z,23.13
2019-05-12T02:56:07.699Z,18.40
2019-05-12T03:01:05.271Z,15.93
2019-05-12T03:05:58.616Z,21.37
2019-05-12T03:10:54.812Z,18.23
2019-05-12T03:15:46.924Z,18.93
2019-05-12T03:20:39.071Z,19.67
2019-05-12T03:25:35.088Z,17.90
2019-05-12T03:30:29.154Z,15.77
2019-05-12T03:35:19.940Z,16.53
2019-05-12T03:40:14.505Z,16.57
2019-05-12T03:45:07.055Z,15.37
2019-05-12T03:49:59.215Z,15.60
2019-05-12T03:54:55.719Z,16.17
2019-05-12T03:59:46.474Z,17.60
2019-05-12T04:04:38.757Z,16.43
2019-05-12T04:09:31.064Z,16.50
2019-05-12T04:14:25.223Z,16.70
2019-05-12T04:19:17.869Z,15.73
2019-05-12T04:24:10.431Z,16.40
2019-05-12T04:29:05.085Z,15.87
2019-05-12T04:33:56.959Z,16.43
2019-05-12T04:38:49.519Z,16.13
2019-05-12T04:43:44.723Z,16.53
2019-05-12T04:48:36.279Z,15.43
2019-05-12T04:53:28.380Z,17.40
2019-05-12T04:58:20.727Z,18.27
2019-05-12T05:03:14.149Z,16.20
2019-05-12T05:08:07.058Z,16.60
2019-05-12T05:12:59.550Z,18.70
2019-05-12T05:17:54.403Z,16.67
2019-05-12T05:22:45.869Z,17.27
2019-05-12T05:27:38.144Z,17.03
2019-05-12T05:32:30.675Z,14.33
2019-05-12T05:37:23.973Z,13.10
2019-05-12T05:42:16.641Z,12.20
2019-05-12T05:47:09.365Z,10.97
2019-05-12T05:52:03.548Z,10.67
2019-05-12T05:57:01.859Z,10.07
2019-05-12T06:01:52.524Z,8.30
2019-05-12T06:06:50.824Z,7.40
2019-05-12T06:11:38.462Z,6.30
2019-05-12T06:16:31.270Z,5.73
2019-05-12T06:21:24.255Z,5.03
2019-05-12T06:26:26.700Z,5.27
2019-05-12T06:31:13.806Z,4.53
2019-05-12T06:36:07.543Z,4.30
2019-05-12T06:41:03.615Z,4.30
2019-05-12T06:45:56.365Z,4.60
2019-05-12T06:50:49.011Z,4.40
2019-05-12T06:55:43.326Z,3.75
2019-05-12T07:00:35.629Z,3.20
2019-05-12T07:05:35.949Z,3.20
2019-05-12T07:10:36.871Z,3.80
2019-05-12T07:15:17.438Z,3.27
2019-05-12T07:20:10.364Z,2.90
2019-05-12T07:25:04.552Z,2.47
2019-05-12T07:29:56.920Z,2.70
2019-05-12T07:34:50.015Z,2.60
2019-05-12T07:39:47.226Z,2.67
2019-05-12T07:44:41.150Z,3.00
2019-05-12T07:49:38.568Z,2.72
2019-05-12T07:54:34.655Z,2.60
2019-05-12T07:59:28.287Z,2.35
2019-05-12T08:04:17.344Z,2.50
2019-05-12T08:09:10.000Z,3.52
2019-05-12T08:14:03.622Z,2.35
2019-05-12T08:18:56.073Z,3.00
2019-05-12T08:23:50.729Z,2.08
2019-05-12T08:28:44.135Z,1.92
2019-05-12T08:33:36.943Z,1.90
2019-05-12T08:38:29.430Z,2.00
2019-05-12T08:43:24.105Z,1.90
2019-05-12T08:48:21.486Z,2.00
2019-05-12T08:53:12.243Z,2.20
2019-05-12T08:58:04.100Z,2.33
2019-05-12T09:02:56.399Z,1.95
2019-05-12T09:07:48.745Z,2.17
2019-05-12T09:12:41.150Z,2.02
2019-05-12T09:17:36.957Z,2.65
2019-05-12T09:22:27.521Z,2.12
2019-05-12T09:27:19.775Z,2.22
2019-05-12T09:32:14.590Z,2.40
2019-05-12T09:37:06.382Z,2.00
2019-05-12T09:41:58.816Z,2.27
2019-05-12T09:46:53.417Z,2.23
2019-05-12T09:51:46.038Z,2.40
2019-05-12T09:56:41.133Z,2.02
2019-05-12T10:01:35.352Z,2.30
2019-05-12T10:06:26.292Z,2.15
2019-05-12T10:11:20.800Z,2.42
2019-05-12T10:16:13.417Z,2.20
2019-05-12T10:21:09.991Z,2.45
2019-05-12T10:26:01.322Z,2.20
2019-05-12T10:30:56.938Z,2.45
2019-05-12T10:35:48.492Z,2.70
2019-05-12T10:40:41.033Z,2.35
2019-05-12T10:45:34.814Z,2.33
2019-05-12T10:50:27.316Z,2.55
2019-05-12T10:55:19.629Z,2.50
2019-05-12T11:00:19.723Z,2.10
2019-05-12T11:05:12.418Z,2.00
2019-05-12T11:10:15.346Z,2.25
2019-05-12T11:15:06.808Z,2.42
2019-05-12T11:19:56.157Z,2.05
2019-05-12T11:24:52.421Z,2.25
2019-05-12T11:29:48.530Z,2.40
2019-05-12T11:34:37.304Z,2.00
2019-05-12T11:39:30.633Z,2.03
2019-05-12T11:44:24.073Z,1.90
2019-05-12T11:49:21.754Z,5.87
2019-05-12T11:54:11.498Z,1.80
2019-05-12T11:59:05.238Z,2.02
2019-05-12T12:03:57.967Z,2.20
2019-05-12T12:08:50.640Z,1.95
2019-05-12T12:13:43.310Z,1.87
2019-05-12T12:18:35.504Z,2.00
2019-05-12T12:23:27.858Z,2.20
2019-05-12T12:28:20.825Z,1.90
2019-05-12T12:33:14.355Z,1.90
2019-05-12T12:38:07.323Z,2.10
2019-05-12T12:43:00.041Z,1.95
2019-05-12T12:47:54.080Z,1.75
2019-05-12T12:52:48.952Z,1.80
2019-05-12T12:57:46.343Z,2.15
2019-05-12T13:02:39.112Z,1.50
2019-05-12T13:07:28.542Z,1.50
2019-05-12T13:12:20.804Z,1.60
2019-05-12T13:17:14.226Z,1.98
2019-05-12T13:22:08.860Z,1.65
2019-05-12T13:27:03.615Z,1.90
2019-05-12T13:31:55.683Z,1.75
2019-05-12T13:36:48.085Z,2.20
2019-05-12T13:41:40.508Z,1.87
2019-05-12T13:46:34.481Z,1.75
2019-05-12T13:51:27.051Z,1.55
2019-05-12T13:56:27.842Z,1.77
2019-05-12T14:01:19.803Z,1.67
2019-05-12T14:06:07.464Z,2.20
2019-05-12T14:11:00.114Z,1.60
2019-05-12T14:15:53.691Z,1.67
2019-05-12T14:20:50.977Z,1.70
2019-05-12T14:25:40.387Z,1.70
2019-05-12T14:30:33.626Z,1.80
2019-05-12T14:35:26.137Z,1.70
2019-05-12T14:40:21.437Z,1.57
2019-05-12T14:45:13.785Z,1.60
2019-05-12T14:50:06.662Z,1.62
2019-05-12T14:54:59.439Z,1.50
2019-05-12T14:59:52.231Z,1.70
2019-05-12T15:04:44.714Z,1.70
2019-05-12T15:09:37.121Z,1.55
2019-05-12T15:14:32.843Z,1.67
2019-05-12T15:19:27.790Z,1.60
2019-05-12T15:24:19.266Z,2.10
2019-05-12T15:29:18.015Z,2.77
2019-05-12T15:34:05.739Z,1.70
2019-05-12T15:38:59.027Z,1.67
2019-05-12T15:43:53.670Z,1.60
2019-05-12T15:48:45.118Z,1.87
2019-05-12T15:53:37.635Z,2.10
2019-05-12T15:58:29.976Z,1.70
2019-05-12T16:03:23.623Z,1.82
2019-05-12T16:08:16.273Z,1.90
2019-05-12T16:13:08.780Z,2.20
2019-05-12T16:18:08.116Z,1.80
2019-05-12T16:22:55.463Z,2.00
2019-05-12T16:27:47.688Z,2.20
2019-05-12T16:32:46.447Z,2.20
2019-05-12T16:37:35.297Z,2.30
2019-05-12T16:42:27.390Z,2.40
2019-05-12T16:47:27.351Z,2.37
2019-05-12T16:52:15.465Z,2.12
2019-05-12T16:57:14.734Z,2.15
2019-05-12T17:02:07.545Z,2.30
2019-05-12T17:06:57.944Z,2.25
2019-05-12T17:11:52.796Z,2.25
2019-05-12T17:16:46.765Z,2.22
2019-05-12T17:21:38.737Z,1.98
2019-05-12T17:26:33.447Z,1.80
2019-05-12T17:31:26.190Z,2.08
2019-05-12T17:36:18.345Z,1.90
2019-05-12T17:41:10.356Z,1.85
2019-05-12T17:46:04.534Z,2.00
2019-05-12T17:50:57.220Z,1.70
2019-05-12T17:55:53.165Z,2.00
2019-05-12T18:00:47.633Z,1.80
2019-05-12T18:05:37.254Z,1.87
2019-05-12T18:10:32.490Z,1.82
2019-05-12T18:15:32.352Z,2.10
2019-05-12T18:20:17.946Z,2.08
2019-05-12T18:25:10.711Z,1.90
2019-05-12T18:30:04.445Z,2.10
2019-05-12T18:34:57.216Z,2.60
2019-05-12T18:39:49.620Z,3.22
2019-05-12T18:44:43.878Z,2.58
2019-05-12T18:49:35.896Z,2.20
2019-05-12T18:54:28.782Z,2.60
2019-05-12T18:59:20.879Z,2.85
2019-05-12T19:04:14.342Z,2.95
2019-05-12T19:09:08.770Z,3.05
2019-05-12T19:14:01.358Z,2.77
2019-05-12T19:18:55.714Z,3.40
2019-05-12T19:23:48.097Z,2.98
2019-05-12T19:28:44.366Z,3.30
2019-05-12T19:33:35.015Z,5.28
2019-05-12T19:38:27.874Z,6.58
2019-05-12T19:43:19.862Z,5.70
2019-05-12T19:48:23.667Z,7.75
2019-05-12T19:53:10.274Z,3.50
2019-05-12T19:58:05.395Z,6.60
2019-05-12T20:02:55.417Z,9.33
2019-05-12T20:07:47.879Z,11.20
2019-05-12T20:12:40.392Z,6.62
2019-05-12T20:17:33.946Z,11.80
2019-05-12T20:22:26.406Z,7.40
2019-05-12T20:27:21.930Z,10.23
2019-05-12T20:32:13.951Z,31.52
2019-05-12T20:37:13.069Z,9.90
2019-05-12T20:42:03.091Z,14.20
2019-05-12T20:47:01.473Z,20.70
2019-05-12T20:51:54.858Z,13.98
2019-05-12T20:56:43.912Z,10.27
2019-05-12T21:01:36.438Z,21.00
2019-05-12T21:06:33.122Z,14.97
2019-05-12T21:11:24.565Z,13.77
2019-05-12T21:16:20.275Z,16.23
2019-05-12T21:21:11.304Z,15.37
2019-05-12T21:26:04.295Z,14.13
2019-05-12T21:30:57.003Z,8.83
2019-05-12T21:35:49.412Z,16.97
2019-05-12T21:40:41.664Z,11.93
2019-05-12T21:45:34.213Z,10.80
2019-05-12T21:50:32.370Z,17.80
2019-05-12T21:55:21.991Z,10.23
2019-05-12T22:00:24.500Z,10.30
2019-05-12T22:05:28.193Z,5.67
2019-05-12T22:10:15.348Z,5.20
2019-05-12T22:15:11.270Z,5.73
2019-05-12T22:20:08.980Z,5.70
2019-05-12T22:24:55.243Z,4.70
2019-05-12T22:29:47.766Z,4.40
2019-05-12T22:35:01.046Z,5.10
2019-05-12T22:39:53.581Z,4.63
2019-05-12T22:44:46.155Z,5.20
2019-05-12T22:49:38.788Z,5.57
2019-05-12T22:54:30.827Z,5.00
2019-05-12T22:59:25.187Z,5.13
2019-05-12T23:04:17.244Z,5.27
2019-05-12T23:09:09.785Z,6.60
2019-05-12T23:14:04.020Z,7.37
2019-05-12T23:19:01.493Z,14.67
2019-05-12T23:23:57.451Z,10.77
2019-05-12T23:28:46.733Z,13.50
2019-05-12T23:33:38.753Z,18.10
2019-05-12T23:38:33.764Z,14.20
2019-05-12T23:43:25.293Z,11.20
2019-05-12T23:48:17.903Z,15.07
2019-05-12T23:53:10.477Z,22.90
2019-05-12T23:58:04.279Z,18.03
